sensor_id;sensor_type;location;lat;lon;timestamp;pressure;altitude;pressure_sealevel;temperature;humidity
3748;BME280;1889;50.058;8.688;2023-02-28T18:29:41;101377.47;;;6.49;40.23
3748;BME280;1889;50.058;8.688;2023-02-28T18:32:11;101378.50;;;6.58;40.27
3748;BME280;1889;50.058;8.688;2023-02-28T18:34:40;101381.25;;;6.65;40.48
3748;BME280;1889;50.058;8.688;2023-02-28T18:37:09;101378.98;;;6.83;40.49
3748;BME280;1889;50.058;8.688;2023-02-28T18:39:39;101380.02;;;6.93;40.54
3748;BME280;1889;50.058;8.688;2023-02-28T18:42:08;101379.30;;;7.02;40.25
3748;BME280;1889;50.058;8.688;2023-02-28T18:44:37;101379.13;;;7.17;40.11
3748;BME280;1889;50.058;8.688;2023-02-28T18:47:07;101376.55;;;7.19;40.11
3748;BME280;1889;50.058;8.688;2023-02-28T18:49:36;101378.22;;;7.15;40.16
3748;BME280;1889;50.058;8.688;2023-02-28T18:52:06;101376.88;;;7.14;39.96
3748;BME280;1889;50.058;8.688;2023-02-28T18:54:35;101378.43;;;7.27;39.97
3748;BME280;1889;50.058;8.688;2023-02-28T18:57:04;101383.88;;;7.15;39.65
3748;BME280;1889;50.058;8.688;2023-02-28T18:59:34;101384.82;;;7.18;39.89
3748;BME280;1889;50.058;8.688;2023-02-28T19:02:03;101381.96;;;7.30;39.65
3748;BME280;1889;50.058;8.688;2023-02-28T19:04:32;101382.41;;;7.06;39.96
3748;BME280;1889;50.058;8.688;2023-02-28T19:07:02;101381.17;;;6.37;40.93
3748;BME280;1889;50.058;8.688;2023-02-28T19:09:31;101383.44;;;6.42;41.01
3748;BME280;1889;50.058;8.688;2023-02-28T19:12:00;101378.09;;;6.83;40.36
3748;BME280;1889;50.058;8.688;2023-02-28T19:14:30;101381.64;;;6.62;40.71
3748;BME280;1889;50.058;8.688;2023-02-28T19:16:59;101383.03;;;6.91;40.41
3748;BME280;1889;50.058;8.688;2023-02-28T19:19:28;101381.39;;;6.71;40.63
3748;BME280;1889;50.058;8.688;2023-02-28T19:21:58;101385.56;;;6.62;40.53
3748;BME280;1889;50.058;8.688;2023-02-28T19:24:27;101387.93;;;6.49;40.68
3748;BME280;1889;50.058;8.688;2023-02-28T19:26:57;101386.02;;;6.63;40.95
3748;BME280;1889;50.058;8.688;2023-02-28T19:29:26;101388.74;;;6.45;41.39
3748;BME280;1889;50.058;8.688;2023-02-28T19:31:56;101387.97;;;6.74;40.79
3748;BME280;1889;50.058;8.688;2023-02-28T19:34:25;101384.33;;;6.66;41.00
3748;BME280;1889;50.058;8.688;2023-02-28T19:36:55;101382.56;;;6.65;40.98
3748;BME280;1889;50.058;8.688;2023-02-28T19:39:24;101381.67;;;6.63;41.17
3748;BME280;1889;50.058;8.688;2023-02-28T19:41:53;101377.18;;;7.04;40.50
3748;BME280;1889;50.058;8.688;2023-02-28T19:44:23;101381.88;;;6.29;41.40
3748;BME280;1889;50.058;8.688;2023-02-28T19:46:52;101378.36;;;6.50;41.42
3748;BME280;1889;50.058;8.688;2023-02-28T19:49:21;101381.50;;;6.54;41.29
3748;BME280;1889;50.058;8.688;2023-02-28T19:51:51;101392.25;;;6.24;41.93
3748;BME280;1889;50.058;8.688;2023-02-28T19:54:20;101391.75;;;6.01;42.71
3748;BME280;1889;50.058;8.688;2023-02-28T19:56:49;101388.84;;;6.51;41.77
3748;BME280;1889;50.058;8.688;2023-02-28T19:59:19;101398.41;;;6.28;42.12
3748;BME280;1889;50.058;8.688;2023-02-28T20:01:48;101390.33;;;6.37;42.01
3748;BME280;1889;50.058;8.688;2023-02-28T20:04:20;101395.00;;;6.54;41.80
3748;BME280;1889;50.058;8.688;2023-02-28T20:06:49;101397.39;;;6.43;41.67
3748;BME280;1889;50.058;8.688;2023-02-28T20:09:19;101398.86;;;6.07;42.71
3748;BME280;1889;50.058;8.688;2023-02-28T20:11:48;101395.24;;;6.44;42.15
3748;BME280;1889;50.058;8.688;2023-02-28T20:14:18;101400.13;;;6.47;41.94
3748;BME280;1889;50.058;8.688;2023-02-28T20:16:47;101398.78;;;6.04;42.76
3748;BME280;1889;50.058;8.688;2023-02-28T20:19:16;101392.89;;;5.94;43.03
3748;BME280;1889;50.058;8.688;2023-02-28T20:21:45;101392.81;;;6.53;42.00
3748;BME280;1889;50.058;8.688;2023-02-28T20:24:15;101395.36;;;6.06;42.60
3748;BME280;1889;50.058;8.688;2023-02-28T20:26:44;101391.17;;;5.75;43.52
3748;BME280;1889;50.058;8.688;2023-02-28T20:29:13;101387.10;;;6.07;43.01
3748;BME280;1889;50.058;8.688;2023-02-28T20:31:43;101389.53;;;5.81;43.51
3748;BME280;1889;50.058;8.688;2023-02-28T20:34:12;101385.70;;;5.84;43.48
3748;BME280;1889;50.058;8.688;2023-02-28T20:36:41;101388.75;;;6.24;42.85
3748;BME280;1889;50.058;8.688;2023-02-28T20:39:11;101385.79;;;5.69;43.69
3748;BME280;1889;50.058;8.688;2023-02-28T20:41:40;101381.07;;;5.53;44.35
3748;BME280;1889;50.058;8.688;2023-02-28T20:44:13;101377.28;;;5.58;44.17
3748;BME280;1889;50.058;8.688;2023-02-28T20:46:42;101390.67;;;5.73;44.04
3748;BME280;1889;50.058;8.688;2023-02-28T20:49:12;101393.02;;;6.20;43.05
3748;BME280;1889;50.058;8.688;2023-02-28T20:51:42;101389.67;;;6.27;42.99
3748;BME280;1889;50.058;8.688;2023-02-28T20:54:12;101391.25;;;6.19;43.09
3748;BME280;1889;50.058;8.688;2023-02-28T20:56:43;101389.41;;;6.35;42.89
3748;BME280;1889;50.058;8.688;2023-02-28T20:59:12;101393.09;;;6.23;43.18
3748;BME280;1889;50.058;8.688;2023-02-28T21:01:42;101389.37;;;6.32;43.02
3748;BME280;1889;50.058;8.688;2023-02-28T21:04:11;101392.00;;;6.56;42.58
3748;BME280;1889;50.058;8.688;2023-02-28T21:06:42;101388.75;;;6.69;42.30
3748;BME280;1889;50.058;8.688;2023-02-28T21:09:14;101388.28;;;6.68;42.27
3748;BME280;1889;50.058;8.688;2023-02-28T21:11:43;101387.97;;;6.51;42.56
3748;BME280;1889;50.058;8.688;2023-02-28T21:14:15;101390.94;;;6.46;42.78
3748;BME280;1889;50.058;8.688;2023-02-28T21:16:45;101389.20;;;6.46;42.73
3748;BME280;1889;50.058;8.688;2023-02-28T21:19:14;101384.58;;;6.55;42.67
3748;BME280;1889;50.058;8.688;2023-02-28T21:21:44;101382.66;;;6.70;42.33
3748;BME280;1889;50.058;8.688;2023-02-28T21:24:17;101387.23;;;6.58;42.53
3748;BME280;1889;50.058;8.688;2023-02-28T21:26:47;101384.97;;;6.53;42.70
3748;BME280;1889;50.058;8.688;2023-02-28T21:29:16;101387.51;;;6.48;42.77
3748;BME280;1889;50.058;8.688;2023-02-28T21:31:48;101383.30;;;6.58;42.59
3748;BME280;1889;50.058;8.688;2023-02-28T21:34:16;101383.62;;;6.75;42.31
3748;BME280;1889;50.058;8.688;2023-02-28T21:36:46;101378.11;;;6.60;42.55
3748;BME280;1889;50.058;8.688;2023-02-28T21:39:18;101384.08;;;6.53;42.68
3748;BME280;1889;50.058;8.688;2023-02-28T21:41:49;101382.14;;;6.66;42.32
3748;BME280;1889;50.058;8.688;2023-02-28T21:44:18;101378.99;;;6.60;42.46
3748;BME280;1889;50.058;8.688;2023-02-28T21:46:50;101384.36;;;6.68;42.37
3748;BME280;1889;50.058;8.688;2023-02-28T21:49:21;101380.69;;;6.57;42.56
3748;BME280;1889;50.058;8.688;2023-02-28T21:51:51;101380.09;;;6.48;42.84
3748;BME280;1889;50.058;8.688;2023-02-28T21:54:21;101379.77;;;6.55;42.70
3748;BME280;1889;50.058;8.688;2023-02-28T21:56:51;101380.16;;;6.53;42.83
3748;BME280;1889;50.058;8.688;2023-02-28T21:59:20;101379.45;;;6.61;42.61
3748;BME280;1889;50.058;8.688;2023-02-28T22:01:50;101374.39;;;6.47;42.83
3748;BME280;1889;50.058;8.688;2023-02-28T22:04:19;101374.75;;;6.43;42.88
3748;BME280;1889;50.058;8.688;2023-02-28T22:06:51;101373.09;;;6.47;42.92
3748;BME280;1889;50.058;8.688;2023-02-28T22:09:21;101369.77;;;6.56;42.73
3748;BME280;1889;50.058;8.688;2023-02-28T22:11:51;101375.28;;;6.47;42.88
3748;BME280;1889;50.058;8.688;2023-02-28T22:14:21;101380.78;;;6.39;43.04
3748;BME280;1889;50.058;8.688;2023-02-28T22:16:50;101383.48;;;6.22;43.38
3748;BME280;1889;50.058;8.688;2023-02-28T22:19:20;101389.87;;;6.15;43.51
3748;BME280;1889;50.058;8.688;2023-02-28T22:21:49;101384.14;;;6.32;43.24
3748;BME280;1889;50.058;8.688;2023-02-28T22:24:20;101388.48;;;6.32;43.29
3748;BME280;1889;50.058;8.688;2023-02-28T22:26:51;101388.41;;;6.29;43.31
3748;BME280;1889;50.058;8.688;2023-02-28T22:29:21;101395.91;;;6.32;43.34
3748;BME280;1889;50.058;8.688;2023-02-28T22:31:50;101402.13;;;6.39;43.15
3748;BME280;1889;50.058;8.688;2023-02-28T22:34:20;101399.02;;;6.36;43.23
3748;BME280;1889;50.058;8.688;2023-02-28T22:36:49;101398.06;;;6.33;43.28
3748;BME280;1889;50.058;8.688;2023-02-28T22:39:18;101394.63;;;6.35;43.21
3748;BME280;1889;50.058;8.688;2023-02-28T22:41:48;101395.45;;;6.33;43.25
3748;BME280;1889;50.058;8.688;2023-02-28T22:44:17;101391.32;;;6.44;43.04
3748;BME280;1889;50.058;8.688;2023-02-28T22:46:52;101400.20;;;6.52;42.91
3748;BME280;1889;50.058;8.688;2023-02-28T22:49:21;101405.09;;;6.35;43.16
3748;BME280;1889;50.058;8.688;2023-02-28T22:51:52;101399.17;;;6.22;43.41
3748;BME280;1889;50.058;8.688;2023-02-28T22:54:21;101397.08;;;6.49;42.79
3748;BME280;1889;50.058;8.688;2023-02-28T22:56:51;101402.44;;;6.32;43.21
3748;BME280;1889;50.058;8.688;2023-02-28T22:59:20;101410.88;;;5.99;43.89
3748;BME280;1889;50.058;8.688;2023-02-28T23:01:50;101404.28;;;5.79;44.19
3748;BME280;1889;50.058;8.688;2023-02-28T23:04:19;101406.30;;;5.89;44.12
3748;BME280;1889;50.058;8.688;2023-02-28T23:06:50;101411.80;;;6.02;43.92
3748;BME280;1889;50.058;8.688;2023-02-28T23:09:19;101411.77;;;6.01;43.97
3748;BME280;1889;50.058;8.688;2023-02-28T23:11:49;101413.03;;;5.98;44.06
3748;BME280;1889;50.058;8.688;2023-02-28T23:14:20;101408.00;;;6.07;43.96
3748;BME280;1889;50.058;8.688;2023-02-28T23:16:52;101405.89;;;6.11;43.95
3748;BME280;1889;50.058;8.688;2023-02-28T23:19:27;101403.50;;;6.01;44.14
3748;BME280;1889;50.058;8.688;2023-02-28T23:22:00;101407.89;;;6.02;44.21
3748;BME280;1889;50.058;8.688;2023-02-28T23:24:32;101406.11;;;6.00;44.31
3748;BME280;1889;50.058;8.688;2023-02-28T23:27:04;101405.23;;;6.01;44.37
3748;BME280;1889;50.058;8.688;2023-02-28T23:29:34;101406.50;;;5.98;44.38
3748;BME280;1889;50.058;8.688;2023-02-28T23:32:03;101406.80;;;5.91;44.44
3748;BME280;1889;50.058;8.688;2023-02-28T23:34:33;101408.37;;;5.86;44.55
3748;BME280;1889;50.058;8.688;2023-02-28T23:37:02;101405.77;;;6.05;44.08
3748;BME280;1889;50.058;8.688;2023-02-28T23:39:32;101401.84;;;5.66;44.79
3748;BME280;1889;50.058;8.688;2023-02-28T23:42:01;101403.52;;;5.83;44.61
3748;BME280;1889;50.058;8.688;2023-02-28T23:44:31;101400.57;;;5.67;44.83
3748;BME280;1889;50.058;8.688;2023-02-28T23:47:00;101398.68;;;5.81;44.70
3748;BME280;1889;50.058;8.688;2023-02-28T23:49:29;101400.75;;;5.76;44.66
3748;BME280;1889;50.058;8.688;2023-02-28T23:51:59;101400.91;;;5.83;44.55
3748;BME280;1889;50.058;8.688;2023-02-28T23:54:28;101399.27;;;5.67;44.92
3748;BME280;1889;50.058;8.688;2023-02-28T23:56:57;101399.55;;;5.44;45.34
3748;BME280;1889;50.058;8.688;2023-02-28T23:59:27;101406.22;;;5.68;44.97
